Time;durP1;ratioP1;P1;durP2;ratioP2;P2;SDS_P1;SDS_P2;PMS_P1;PMS_P2;Temp;Humidity;BMP_temperature;BMP_pressure;BME280_temperature;BME280_humidity;BME280_pressure;Samples;Min_cycle;Max_cycle;Signal;HPM_P1;HPM_P2
2022/10/08 00:00:58;;;;;;;5.15;2.13;;;12.70;99.90;;;;;;4937118;29;20061;-83
2022/10/08 00:03:30;;;;;;;13.57;2.78;;;12.70;99.90;;;;;;4936887;29;20051;-83
2022/10/08 00:05:58;;;;;;;9.35;2.55;;;12.70;99.90;;;;;;4937518;29;20098;-83
2022/10/08 00:08:25;;;;;;;7.57;2.58;;;12.60;99.90;;;;;;4937831;29;20056;-83
2022/10/08 00:10:56;;;;;;;10.07;2.30;;;12.70;99.90;;;;;;4937032;29;20043;-83
2022/10/08 00:13:27;;;;;;;9.82;2.13;;;12.70;99.90;;;;;;4936894;29;20098;-84
2022/10/08 00:15:53;;;;;;;6.45;1.60;;;12.60;99.90;;;;;;4938346;29;20140;-83
2022/10/08 00:18:22;;;;;;;9.73;2.00;;;12.60;99.90;;;;;;4939409;29;20071;-83
2022/10/08 00:20:48;;;;;;;9.27;2.03;;;12.60;99.90;;;;;;4937913;29;20534;-83
2022/10/08 00:23:15;;;;;;;8.00;1.73;;;12.60;99.90;;;;;;4937099;29;20051;-83
2022/10/08 00:25:43;;;;;;;7.40;1.52;;;12.60;99.90;;;;;;4937849;29;20411;-83
2022/10/08 00:28:10;;;;;;;9.52;1.80;;;12.60;99.90;;;;;;4937912;29;20496;-84
2022/10/08 00:30:40;;;;;;;7.78;1.70;;;12.60;99.90;;;;;;4920922;29;20056;-83
2022/10/08 00:33:10;;;;;;;6.70;1.70;;;12.60;99.90;;;;;;4920732;29;20070;-83
2022/10/08 00:35:37;;;;;;;10.50;2.35;;;12.60;99.90;;;;;;4938342;29;20047;-84
2022/10/08 00:38:03;;;;;;;8.00;2.03;;;12.50;99.90;;;;;;4921043;29;20043;-83
2022/10/08 00:40:29;;;;;;;8.95;1.80;;;12.60;99.90;;;;;;4920914;29;20106;-83
2022/10/08 00:42:54;;;;;;;10.45;2.50;;;12.60;99.90;;;;;;4919488;29;20110;-83
2022/10/08 00:45:20;;;;;;;6.70;1.77;;;12.50;99.90;;;;;;4938752;29;20048;-83
2022/10/08 00:47:49;;;;;;;8.32;2.65;;;12.60;99.90;;;;;;4921711;29;20130;-84
2022/10/08 00:50:31;;;;;;;11.63;1.98;;;12.50;99.90;;;;;;4921746;29;20058;-83
2022/10/08 00:53:06;;;;;;;5.90;2.10;;;12.50;99.90;;;;;;4921041;29;20063;-84
2022/10/08 00:55:34;;;;;;;9.68;2.20;;;12.50;99.90;;;;;;4921694;29;20055;-83
2022/10/08 00:58:11;;;;;;;8.48;2.05;;;12.50;99.90;;;;;;4922794;29;20062;-83
2022/10/08 01:00:39;;;;;;;12.82;2.00;;;12.50;99.90;;;;;;4921262;29;20384;-83
2022/10/08 01:03:05;;;;;;;7.50;1.30;;;12.50;99.90;;;;;;4938085;29;20044;-83
2022/10/08 01:05:43;;;;;;;6.85;1.73;;;12.50;99.90;;;;;;4921208;29;20054;-84
2022/10/08 01:08:20;;;;;;;7.43;1.92;;;12.50;99.90;;;;;;4921265;29;20562;-84
2022/10/08 01:10:59;;;;;;;8.93;1.98;;;12.50;99.90;;;;;;4920756;29;20063;-84
2022/10/08 01:13:40;;;;;;;8.90;2.20;;;12.40;99.90;;;;;;4938347;29;20126;-84
2022/10/08 01:16:41;;;;;;;7.47;1.85;;;12.40;99.90;;;;;;4920806;29;20058;-84
2022/10/08 01:19:41;;;;;;;8.82;2.05;;;12.30;99.90;;;;;;4938170;29;20403;-83
2022/10/08 01:22:35;;;;;;;6.10;2.15;;;12.40;99.90;;;;;;4937968;29;20558;-85
2022/10/08 01:28:04;;;;;;;9.95;1.95;;;12.30;99.90;;;;;;4937811;29;20064;-84
2022/10/08 01:30:33;;;;;;;7.78;2.50;;;12.30;99.90;;;;;;4920374;29;20052;-83
2022/10/08 01:33:11;;;;;;;7.72;1.98;;;12.30;99.90;;;;;;4920601;29;20177;-83
2022/10/08 01:35:43;;;;;;;6.93;1.90;;;12.20;99.90;;;;;;4938737;29;20051;-84
2022/10/08 01:38:13;;;;;;;10.15;1.77;;;12.20;99.90;;;;;;4938368;29;20104;-84
2022/10/08 01:40:42;;;;;;;10.88;2.25;;;12.20;99.90;;;;;;4921492;29;20435;-84
2022/10/08 01:43:11;;;;;;;8.57;1.98;;;12.20;99.90;;;;;;4920216;29;20395;-84
2022/10/08 01:45:41;;;;;;;10.60;1.90;;;12.20;99.90;;;;;;4920035;29;20052;-84
2022/10/08 01:48:15;;;;;;;8.43;1.83;;;12.10;99.90;;;;;;4937807;29;20048;-84
2022/10/08 01:50:46;;;;;;;9.25;2.42;;;12.10;99.90;;;;;;4938872;29;20128;-84
2022/10/08 01:53:15;;;;;;;10.07;2.03;;;12.10;99.90;;;;;;4937165;29;20511;-84
2022/10/08 01:55:48;;;;;;;9.00;1.65;;;12.10;99.90;;;;;;4941633;29;20046;-84
2022/10/08 01:58:36;;;;;;;7.65;1.85;;;12.00;99.90;;;;;;4925353;29;20487;-84
2022/10/08 02:01:10;;;;;;;10.35;2.50;;;12.00;99.90;;;;;;4924269;29;20055;-83
2022/10/08 02:03:36;;;;;;;9.98;2.05;;;12.00;99.90;;;;;;4942459;29;20048;-84
2022/10/08 02:06:04;;;;;;;8.60;2.10;;;12.00;99.90;;;;;;4924521;29;20106;-84
2022/10/08 02:08:32;;;;;;;8.60;1.80;;;11.90;99.90;;;;;;4942269;29;20541;-84
2022/10/08 02:10:58;;;;;;;7.75;1.95;;;11.90;99.90;;;;;;4941682;29;20116;-84
2022/10/08 02:13:24;;;;;;;6.47;2.42;;;11.90;99.90;;;;;;4925212;29;20131;-84
2022/10/08 02:16:03;;;;;;;9.15;2.30;;;11.80;99.90;;;;;;4941696;29;20079;-83
2022/10/08 02:18:50;;;;;;;7.30;2.10;;;11.80;99.90;;;;;;4941305;29;20044;-83
2022/10/08 02:21:25;;;;;;;8.27;2.33;;;11.70;99.90;;;;;;4924138;29;20059;-84
2022/10/08 02:24:03;;;;;;;6.82;1.73;;;11.70;99.90;;;;;;4941077;29;20043;-84
2022/10/08 02:26:34;;;;;;;10.30;1.80;;;11.70;99.90;;;;;;4940724;29;20078;-84
2022/10/08 02:29:04;;;;;;;7.68;1.30;;;11.70;99.90;;;;;;4940532;29;20043;-84
2022/10/08 02:31:39;;;;;;;12.20;2.10;;;11.60;99.90;;;;;;4923517;29;20052;-84
2022/10/08 02:34:30;;;;;;;11.40;2.13;;;11.50;99.90;;;;;;4924224;29;20395;-84
2022/10/08 02:37:21;;;;;;;11.45;2.38;;;11.60;99.90;;;;;;4923421;29;20047;-84
2022/10/08 02:39:58;;;;;;;10.13;1.98;;;11.50;99.90;;;;;;4923356;29;20391;-84
2022/10/08 02:42:26;;;;;;;8.32;2.08;;;11.50;99.90;;;;;;4940606;29;20052;-84
2022/10/08 02:45:24;;;;;;;8.15;1.30;;;11.50;99.90;;;;;;4923292;29;20075;-84
2022/10/08 02:47:55;;;;;;;9.93;1.90;;;11.40;99.90;;;;;;4918718;29;20519;-84
2022/10/08 02:50:23;;;;;;;10.13;1.83;;;11.40;99.90;;;;;;4923418;29;20431;-84
2022/10/08 02:52:50;;;;;;;11.30;2.22;;;11.40;99.90;;;;;;4924364;29;20055;-84
2022/10/08 02:55:35;;;;;;;9.77;2.00;;;11.40;99.90;;;;;;4924465;29;20051;-85
2022/10/08 02:58:04;;;;;;;9.45;1.77;;;11.30;99.90;;;;;;4923540;29;20055;-84
2022/10/08 03:00:36;;;;;;;11.07;1.83;;;11.30;99.90;;;;;;4924012;29;20559;-84
2022/10/08 03:03:13;;;;;;;9.98;1.80;;;11.30;99.90;;;;;;4922581;29;20447;-84
2022/10/08 03:05:41;;;;;;;7.40;2.22;;;11.20;99.90;;;;;;4921872;29;20051;-84
2022/10/08 03:08:15;;;;;;;12.60;2.17;;;11.20;99.90;;;;;;4923058;29;20090;-83
2022/10/08 03:10:44;;;;;;;8.68;1.77;;;11.20;99.90;;;;;;4922628;29;20048;-84
2022/10/08 03:13:11;;;;;;;11.23;1.98;;;11.20;99.90;;;;;;4922826;29;20058;-84
2022/10/08 03:15:40;;;;;;;11.23;1.60;;;11.20;99.90;;;;;;4922414;29;20047;-84
2022/10/08 03:18:09;;;;;;;9.23;1.85;;;11.10;99.90;;;;;;4922222;29;20086;-85
2022/10/08 03:20:40;;;;;;;10.27;1.58;;;11.10;99.90;;;;;;4922576;29;20126;-84
2022/10/08 03:23:06;;;;;;;11.63;2.03;;;11.10;99.90;;;;;;4940452;29;20422;-85
2022/10/08 03:25:32;;;;;;;8.60;1.77;;;11.10;99.90;;;;;;4922673;29;20047;-84
2022/10/08 03:27:57;;;;;;;12.05;1.80;;;11.10;99.90;;;;;;4922705;29;20391;-84
2022/10/08 03:30:23;;;;;;;11.60;2.10;;;11.10;99.90;;;;;;4939435;29;20056;-85
2022/10/08 03:32:48;;;;;;;8.05;1.75;;;11.10;99.90;;;;;;4923062;29;20043;-84
2022/10/08 03:35:14;;;;;;;14.52;2.20;;;11.10;99.90;;;;;;4939110;29;20503;-84
2022/10/08 03:37:40;;;;;;;13.98;2.35;;;11.00;99.90;;;;;;4938640;29;20043;-84
2022/10/08 03:40:06;;;;;;;13.85;2.00;;;11.00;99.90;;;;;;4921663;29;20377;-85
2022/10/08 03:42:31;;;;;;;9.10;1.60;;;11.00;99.90;;;;;;4921942;29;20055;-84
2022/10/08 03:45:00;;;;;;;11.25;1.50;;;10.90;99.90;;;;;;4939436;29;20047;-85
2022/10/08 03:47:25;;;;;;;7.22;1.75;;;10.90;99.90;;;;;;4939394;29;20044;-85
2022/10/08 03:49:51;;;;;;;10.38;1.70;;;10.90;99.90;;;;;;4938988;29;20451;-84
2022/10/08 03:52:17;;;;;;;9.50;1.98;;;10.90;99.90;;;;;;4922019;29;20051;-84
2022/10/08 03:54:42;;;;;;;7.38;1.55;;;10.90;99.90;;;;;;4921913;29;20043;-84
2022/10/08 03:57:08;;;;;;;7.32;1.50;;;10.80;99.90;;;;;;4938837;29;20040;-85
2022/10/08 03:59:33;;;;;;;11.10;2.05;;;10.80;99.90;;;;;;4938717;29;20052;-84
2022/10/08 04:01:59;;;;;;;9.50;2.38;;;10.80;99.90;;;;;;4921836;29;20052;-85
2022/10/08 04:04:25;;;;;;;8.20;1.65;;;10.80;99.90;;;;;;4938292;29;20073;-85
2022/10/08 04:06:50;;;;;;;14.32;1.80;;;10.70;99.90;;;;;;4938701;29;20051;-84
2022/10/08 04:09:16;;;;;;;6.90;1.65;;;10.70;99.90;;;;;;4938893;29;20105;-85
2022/10/08 04:11:41;;;;;;;9.98;1.83;;;10.60;99.90;;;;;;4921149;29;20063;-84
2022/10/08 04:14:07;;;;;;;12.80;1.80;;;10.60;99.90;;;;;;4922072;29;20047;-84
2022/10/08 04:16:33;;;;;;;10.02;1.65;;;10.60;99.90;;;;;;4921844;29;20052;-85
2022/10/08 04:18:58;;;;;;;8.98;1.73;;;10.60;99.90;;;;;;4921554;29;20051;-84
2022/10/08 04:21:24;;;;;;;6.47;2.00;;;10.60;99.90;;;;;;4921262;29;20483;-84
2022/10/08 04:23:50;;;;;;;8.93;1.58;;;10.60;99.90;;;;;;4921033;29;20054;-85
2022/10/08 04:26:15;;;;;;;8.90;1.70;;;10.60;99.90;;;;;;4939100;29;20084;-85
2022/10/08 04:28:43;;;;;;;12.88;1.77;;;10.60;99.90;;;;;;4937650;29;20384;-85
2022/10/08 04:31:13;;;;;;;9.98;1.70;;;10.50;99.90;;;;;;4938083;29;20073;-85
2022/10/08 04:33:38;;;;;;;7.05;2.38;;;10.50;99.90;;;;;;4938349;29;20427;-85
2022/10/08 04:36:13;;;;;;;7.28;1.63;;;10.50;99.90;;;;;;4921513;29;20051;-84
2022/10/08 04:38:41;;;;;;;8.40;1.90;;;10.50;99.90;;;;;;4937737;29;20095;-84
2022/10/08 04:41:10;;;;;;;11.27;1.85;;;10.50;99.90;;;;;;4920613;29;20431;-85
2022/10/08 04:43:38;;;;;;;6.78;1.63;;;10.40;99.90;;;;;;4938136;29;20197;-84
2022/10/08 04:46:04;;;;;;;7.70;1.90;;;10.40;99.90;;;;;;4938125;29;20075;-85
2022/10/08 04:48:30;;;;;;;12.10;1.98;;;10.40;99.90;;;;;;4937713;29;20372;-85
2022/10/08 04:51:01;;;;;;;8.48;1.58;;;10.40;99.90;;;;;;4920108;29;20479;-85
2022/10/08 04:53:28;;;;;;;9.10;1.73;;;10.40;99.90;;;;;;4938421;29;20111;-85
2022/10/08 04:55:54;;;;;;;9.18;1.90;;;10.30;99.90;;;;;;4938357;29;20043;-85
2022/10/08 04:58:22;;;;;;;9.95;1.60;;;10.30;99.90;;;;;;4921034;29;20391;-85
2022/10/08 05:00:47;;;;;;;12.02;1.85;;;10.30;99.90;;;;;;4937169;29;20048;-85
2022/10/08 05:03:13;;;;;;;11.95;2.33;;;10.30;99.90;;;;;;4920982;29;20050;-85
2022/10/08 05:05:40;;;;;;;12.68;2.50;;;10.30;99.90;;;;;;4937644;29;20514;-85
2022/10/08 05:08:06;;;;;;;10.07;1.63;;;10.30;99.90;;;;;;4920112;29;20051;-85
2022/10/08 05:10:31;;;;;;;7.80;1.40;;;10.20;99.90;;;;;;4936997;29;20518;-85
2022/10/08 05:12:57;;;;;;;10.27;1.65;;;10.30;99.90;;;;;;4937236;29;20397;-85
2022/10/08 05:15:22;;;;;;;11.27;1.98;;;10.30;99.90;;;;;;4937620;29;20048;-85
2022/10/08 05:17:48;;;;;;;11.13;1.63;;;10.30;99.90;;;;;;4938151;29;20047;-85
2022/10/08 05:20:14;;;;;;;12.65;2.00;;;10.20;99.90;;;;;;4938523;29;20039;-85
2022/10/08 05:22:46;;;;;;;9.45;1.73;;;10.20;99.90;;;;;;4937345;29;20487;-85
2022/10/08 05:25:12;;;;;;;9.33;1.83;;;10.20;99.90;;;;;;4920592;29;20043;-85
2022/10/08 05:27:37;;;;;;;8.77;1.92;;;10.20;99.90;;;;;;4920897;29;20066;-85
2022/10/08 05:30:04;;;;;;;12.38;2.10;;;10.20;99.90;;;;;;4938016;29;20514;-85
2022/10/08 05:32:29;;;;;;;9.73;1.70;;;10.20;99.90;;;;;;4937966;29;20083;-85
2022/10/08 05:34:55;;;;;;;14.45;2.15;;;10.20;99.90;;;;;;4920220;29;20078;-85
2022/10/08 05:37:21;;;;;;;10.82;1.75;;;10.20;99.90;;;;;;4938340;29;20414;-85
2022/10/08 05:39:47;;;;;;;12.93;2.03;;;10.10;99.90;;;;;;4919657;29;20047;-85
2022/10/08 05:42:12;;;;;;;9.07;2.05;;;10.10;99.90;;;;;;4920193;29;20455;-85
2022/10/08 05:44:39;;;;;;;9.13;1.83;;;10.10;99.90;;;;;;4936939;29;20035;-85
2022/10/08 05:47:05;;;;;;;7.82;1.67;;;10.10;99.90;;;;;;4918622;29;20052;-85
2022/10/08 05:49:30;;;;;;;13.60;1.88;;;10.10;99.90;;;;;;4919358;29;20054;-86
2022/10/08 05:51:56;;;;;;;8.77;1.60;;;10.10;99.90;;;;;;4936118;29;20372;-85
2022/10/08 05:54:22;;;;;;;8.52;1.40;;;10.10;99.90;;;;;;4936490;29;20047;-85
2022/10/08 05:56:47;;;;;;;10.13;1.65;;;10.10;99.90;;;;;;4936258;29;20047;-85
2022/10/08 05:59:22;;;;;;;9.60;1.50;;;10.10;99.90;;;;;;4936324;29;20122;-85
2022/10/08 06:01:49;;;;;;;7.55;1.80;;;10.10;99.90;;;;;;4919430;29;20794;-85
2022/10/08 06:04:14;;;;;;;12.40;1.92;;;10.00;99.90;;;;;;4936087;29;20043;-84
2022/10/08 06:06:41;;;;;;;10.00;1.77;;;10.00;99.90;;;;;;4936180;29;20395;-84
2022/10/08 06:09:10;;;;;;;12.50;1.73;;;10.00;99.90;;;;;;4936171;29;20130;-84
2022/10/08 06:11:37;;;;;;;10.82;1.88;;;10.10;99.90;;;;;;4936233;29;20491;-85
2022/10/08 06:14:05;;;;;;;8.73;2.22;;;10.20;99.90;;;;;;4918906;29;20051;-85
2022/10/08 06:16:31;;;;;;;11.75;2.13;;;10.30;99.90;;;;;;4935930;29;20407;-84
2022/10/08 06:18:57;;;;;;;11.07;1.80;;;10.30;99.90;;;;;;4918805;29;20478;-84
2022/10/08 06:21:25;;;;;;;9.20;2.30;;;10.40;99.90;;;;;;4936148;29;20130;-84
2022/10/08 06:23:55;;;;;;;8.40;1.80;;;10.40;99.90;;;;;;4919011;29;20074;-84
2022/10/08 06:26:22;;;;;;;10.82;1.70;;;10.50;99.90;;;;;;4936178;29;20114;-84
2022/10/08 06:28:48;;;;;;;11.50;1.45;;;10.40;99.90;;;;;;4935985;29;20168;-83
2022/10/08 06:31:16;;;;;;;9.40;1.48;;;10.40;99.90;;;;;;4918862;29;20487;-83
2022/10/08 06:33:41;;;;;;;6.18;1.10;;;10.40;99.90;;;;;;4919074;29;20087;-83
2022/10/08 06:36:14;;;;;;;7.28;1.35;;;10.50;99.90;;;;;;4918892;29;20436;-82
2022/10/08 06:38:39;;;;;;;8.77;1.65;;;10.50;99.90;;;;;;4919352;29;20081;-83
2022/10/08 06:41:05;;;;;;;5.82;1.10;;;10.60;99.90;;;;;;4936342;29;20402;-82
2022/10/08 06:43:31;;;;;;;9.13;2.33;;;10.60;99.90;;;;;;4922274;29;20048;-84
2022/10/08 06:45:58;;;;;;;9.43;1.60;;;10.70;99.90;;;;;;4939354;29;20043;-83
2022/10/08 06:48:25;;;;;;;11.68;1.80;;;10.80;99.90;;;;;;4939498;29;20123;-83
2022/10/08 06:51:02;;;;;;;12.68;2.80;;;11.00;99.90;;;;;;4937893;29;20542;-83
2022/10/08 06:53:28;;;;;;;9.43;2.45;;;11.10;99.90;;;;;;4929316;29;20043;-83
2022/10/08 06:55:59;;;;;;;12.68;2.83;;;11.20;99.90;;;;;;4921973;29;20059;-83
2022/10/08 06:58:25;;;;;;;11.13;2.25;;;11.30;99.90;;;;;;4921780;29;20055;-83
2022/10/08 07:01:15;;;;;;;7.80;2.00;;;11.30;99.90;;;;;;4921861;29;20052;-83
2022/10/08 07:03:41;;;;;;;12.07;1.83;;;11.30;99.90;;;;;;4921793;29;20051;-82
2022/10/08 07:06:09;;;;;;;7.85;2.17;;;11.30;99.90;;;;;;4921885;29;20059;-82
2022/10/08 07:08:44;;;;;;;7.15;2.08;;;11.20;99.90;;;;;;4938959;29;20083;-83
2022/10/08 07:11:15;;;;;;;4.85;1.58;;;11.30;99.90;;;;;;4921739;29;20054;-82
2022/10/08 07:13:42;;;;;;;5.70;1.35;;;11.20;99.90;;;;;;4938928;29;20073;-83
2022/10/08 07:16:19;;;;;;;7.35;1.15;;;11.10;99.90;;;;;;4938911;29;20055;-83
2022/10/08 07:18:46;;;;;;;6.32;1.15;;;11.10;99.90;;;;;;4938609;29;20044;-82
2022/10/08 07:21:14;;;;;;;10.77;1.30;;;11.10;99.90;;;;;;4921328;29;20059;-82
2022/10/08 07:23:40;;;;;;;6.88;1.80;;;11.10;99.90;;;;;;4938700;29;20118;-83
2022/10/08 07:26:08;;;;;;;5.50;1.45;;;11.30;99.90;;;;;;4938631;29;20136;-82
2022/10/08 07:28:36;;;;;;;4.20;1.25;;;11.30;99.90;;;;;;4938215;29;20056;-83
2022/10/08 07:31:07;;;;;;;8.27;1.65;;;11.40;99.90;;;;;;4921505;29;20482;-82
2022/10/08 07:33:33;;;;;;;9.02;1.73;;;11.60;99.90;;;;;;4921222;29;20079;-81
2022/10/08 07:36:28;;;;;;;7.25;1.33;;;11.60;99.90;;;;;;4921438;29;20495;-81
2022/10/08 07:38:56;;;;;;;5.13;0.98;;;11.70;99.90;;;;;;4909263;29;20060;-81
2022/10/08 07:41:23;;;;;;;5.18;0.90;;;11.70;99.90;;;;;;4921106;29;20083;-81
2022/10/08 07:43:53;;;;;;;5.53;1.17;;;11.80;99.90;;;;;;4937827;29;20055;-81
2022/10/08 07:46:19;;;;;;;7.43;1.10;;;11.90;99.90;;;;;;4937574;29;20428;-81
2022/10/08 07:48:45;;;;;;;3.83;0.98;;;11.90;99.90;;;;;;4938106;29;20400;-82
2022/10/08 07:51:14;;;;;;;8.35;1.40;;;11.90;99.90;;;;;;4938256;29;20468;-81
2022/10/08 07:53:40;;;;;;;8.88;1.20;;;12.00;99.90;;;;;;4920477;29;20083;-81
2022/10/08 07:56:07;;;;;;;3.90;0.88;;;12.10;99.90;;;;;;4938202;29;20048;-81
2022/10/08 07:58:34;;;;;;;16.25;2.63;;;12.00;99.90;;;;;;4921055;29;20052;-87
2022/10/08 08:01:02;;;;;;;11.02;2.47;;;11.90;99.90;;;;;;4920829;29;20110;-86
2022/10/08 08:03:37;;;;;;;4.50;1.25;;;11.70;99.90;;;;;;4938025;29;20062;-82
2022/10/08 08:06:06;;;;;;;7.57;0.70;;;11.60;99.90;;;;;;4937915;29;20043;-82
2022/10/08 08:08:33;;;;;;;5.40;1.17;;;11.50;99.90;;;;;;4920618;29;20051;-82
2022/10/08 08:11:00;;;;;;;4.28;0.60;;;11.40;99.90;;;;;;4939872;29;20403;-82
2022/10/08 08:13:28;;;;;;;4.03;0.80;;;11.40;99.90;;;;;;4949187;29;20610;-82
2022/10/08 08:16:12;;;;;;;7.47;1.02;;;11.50;99.90;;;;;;4939598;29;20130;-82
2022/10/08 08:18:41;;;;;;;7.88;1.15;;;11.60;99.90;;;;;;4939537;29;20106;-85
2022/10/08 08:21:11;;;;;;;9.68;1.10;;;11.70;99.90;;;;;;4956398;29;20059;-84
2022/10/08 08:23:39;;;;;;;7.72;1.25;;;11.90;99.90;;;;;;4939677;29;20047;-84
2022/10/08 08:26:07;;;;;;;9.98;1.85;;;12.10;99.90;;;;;;4939581;29;20047;-85
2022/10/08 08:28:34;;;;;;;8.73;1.15;;;12.40;99.90;;;;;;4945845;29;20063;-85
2022/10/08 08:31:29;;;;;;;10.23;1.40;;;12.50;99.90;;;;;;4955193;29;20054;-85
2022/10/08 08:33:58;;;;;;;6.25;0.80;;;12.60;99.90;;;;;;4953550;29;20062;-83
2022/10/08 08:36:30;;;;;;;8.30;1.88;;;12.70;99.90;;;;;;4955011;29;20051;-83
2022/10/08 08:38:56;;;;;;;8.20;1.48;;;12.80;99.90;;;;;;4956612;29;20049;-85
2022/10/08 08:41:46;;;;;;;10.60;1.05;;;12.90;99.90;;;;;;4954847;29;20051;-83
2022/10/08 08:44:21;;;;;;;7.78;1.20;;;13.00;99.90;;;;;;4953787;29;20055;-82
2022/10/08 08:47:17;;;;;;;6.53;1.35;;;13.10;99.90;;;;;;4935801;29;20440;-83
2022/10/08 08:49:57;;;;;;;7.63;1.20;;;13.00;99.90;;;;;;4935804;29;20055;-83
2022/10/08 08:52:27;;;;;;;10.23;1.85;;;13.10;99.90;;;;;;4935777;29;20517;-83
2022/10/08 08:54:53;;;;;;;5.60;1.00;;;13.20;99.90;;;;;;4935585;29;20059;-82
2022/10/08 08:57:45;;;;;;;9.32;1.33;;;13.30;99.90;;;;;;4937055;29;20052;-81
2022/10/08 09:00:17;;;;;;;10.40;1.00;;;13.50;99.90;;;;;;4936175;29;20056;-82
2022/10/08 09:03:01;;;;;;;11.82;1.85;;;13.50;99.90;;;;;;4936617;29;20054;-81
2022/10/08 09:05:31;;;;;;;12.57;2.35;;;13.40;99.90;;;;;;4935189;29;20047;-82
2022/10/08 09:08:11;;;;;;;13.63;1.30;;;13.30;99.90;;;;;;4935598;29;20069;-81
2022/10/08 09:10:56;;;;;;;9.27;1.65;;;13.10;99.90;;;;;;4936936;29;20051;-83
2022/10/08 09:13:34;;;;;;;11.18;1.23;;;13.00;99.90;;;;;;4936310;29;20711;-82
2022/10/08 09:16:01;;;;;;;11.05;1.95;;;13.10;99.90;;;;;;4943869;29;20376;-82
2022/10/08 09:18:27;;;;;;;7.93;1.20;;;13.20;99.90;;;;;;4939223;29;20049;-81
2022/10/08 09:20:52;;;;;;;8.57;1.40;;;13.40;99.90;;;;;;4935105;29;20051;-82
2022/10/08 09:23:21;;;;;;;12.55;1.60;;;13.60;99.90;;;;;;4935186;29;20052;-83
2022/10/08 09:26:14;;;;;;;7.18;1.17;;;13.70;99.90;;;;;;4936166;29;20074;-81
2022/10/08 09:28:43;;;;;;;6.63;1.02;;;13.80;99.90;;;;;;4934904;29;20066;-82
2022/10/08 09:31:18;;;;;;;6.65;1.38;;;13.90;99.90;;;;;;4935270;29;20479;-83
2022/10/08 09:33:45;;;;;;;6.57;1.60;;;14.00;99.90;;;;;;4935079;29;20126;-85
2022/10/08 09:36:11;;;;;;;9.23;1.13;;;14.10;99.90;;;;;;4934996;29;20052;-82
2022/10/08 09:38:38;;;;;;;5.15;0.70;;;14.10;99.90;;;;;;4935276;29;20048;-83
2022/10/08 09:41:18;;;;;;;7.50;1.10;;;14.10;99.90;;;;;;4934847;29;20052;-83
2022/10/08 09:44:03;;;;;;;7.68;0.90;;;14.20;99.90;;;;;;4934960;29;20051;-83
2022/10/08 09:46:31;;;;;;;12.45;1.55;;;14.20;99.90;;;;;;4936142;29;20491;-83
2022/10/08 09:49:25;;;;;;;5.50;1.05;;;14.30;99.90;;;;;;4935079;29;20435;-81
2022/10/08 09:51:51;;;;;;;8.15;1.38;;;14.40;99.90;;;;;;4935150;29;20134;-81
2022/10/08 09:54:24;;;;;;;8.45;0.98;;;14.50;99.90;;;;;;4935934;29;20610;-82
2022/10/08 09:56:56;;;;;;;6.28;1.30;;;14.50;99.90;;;;;;4936093;29;20127;-82
2022/10/08 09:59:26;;;;;;;9.65;1.30;;;14.60;99.90;;;;;;4934735;29;20051;-83
2022/10/08 10:02:30;;;;;;;14.32;1.58;;;14.70;99.90;;;;;;4935031;29;20439;-85
2022/10/08 10:04:57;;;;;;;11.45;1.33;;;14.80;99.90;;;;;;4934893;29;20138;-83
2022/10/08 10:07:23;;;;;;;8.75;1.35;;;14.90;99.90;;;;;;4934791;29;20491;-84
2022/10/08 10:09:55;;;;;;;9.15;1.27;;;14.90;99.90;;;;;;4935662;29;20518;-82
2022/10/08 10:12:28;;;;;;;10.00;1.75;;;15.00;99.90;;;;;;4934633;29;20058;-83
2022/10/08 10:15:00;;;;;;;11.15;1.52;;;15.00;99.90;;;;;;4935242;29;20464;-83
2022/10/08 10:17:32;;;;;;;9.70;1.25;;;15.00;99.90;;;;;;4940080;29;20047;-83
2022/10/08 10:20:08;;;;;;;8.02;1.75;;;15.10;99.90;;;;;;4939818;29;20059;-84
2022/10/08 10:23:10;;;;;;;8.82;1.35;;;15.10;99.90;;;;;;4938677;29;20496;-82
2022/10/08 10:25:47;;;;;;;11.88;2.67;;;15.00;99.90;;;;;;4939783;29;20059;-81
2022/10/08 10:28:42;;;;;;;11.43;2.72;;;15.00;99.90;;;;;;4939465;29;20067;-82
2022/10/08 10:31:40;;;;;;;11.00;1.83;;;14.90;99.90;;;;;;4939453;29;20487;-83
2022/10/08 10:34:31;;;;;;;7.05;0.93;;;14.30;99.90;;;;;;4922674;29;20106;-83
2022/10/08 10:37:00;;;;;;;5.03;0.70;;;13.70;99.90;;;;;;4939660;29;20053;-82
2022/10/08 10:39:44;;;;;;;7.43;0.68;;;13.50;99.90;;;;;;4939548;29;20071;-82
2022/10/08 10:42:16;;;;;;;10.45;1.27;;;13.30;99.90;;;;;;4939502;29;20161;-82
2022/10/08 10:44:57;;;;;;;8.77;0.98;;;13.10;99.90;;;;;;4922097;29;20058;-82
2022/10/08 10:47:26;;;;;;;14.05;1.52;;;12.90;99.90;;;;;;4942052;29;20118;-95
2022/10/08 11:15:18;;;;;;;4.53;0.90;;;14.50;99.90;;;;;;5505784;23;20139;-96
2022/10/08 11:18:08;;;;;;;7.20;1.00;;;14.60;99.90;;;;;;4924961;29;20052;-96
2022/10/08 11:20:55;;;;;;;7.93;1.05;;;14.60;99.90;;;;;;4924549;29;20068;-86
2022/10/08 11:23:51;;;;;;;9.30;1.02;;;14.70;99.90;;;;;;4924449;29;20044;-93
2022/10/08 11:26:35;;;;;;;8.48;1.30;;;14.80;99.90;;;;;;4922033;29;20052;-85
2022/10/08 11:29:10;;;;;;;7.28;1.10;;;14.90;99.90;;;;;;4922077;29;20070;-96
2022/10/08 11:31:48;;;;;;;8.70;1.40;;;15.00;99.90;;;;;;4924890;29;20076;-94
2022/10/08 11:34:37;;;;;;;8.77;1.35;;;15.10;99.90;;;;;;4922243;29;20047;-93
2022/10/08 12:16:08;;;;;;;12.38;1.48;;;14.90;99.90;;;;;;6009213;23;20014;-81
2022/10/08 12:18:42;;;;;;;6.63;1.20;;;14.80;99.90;;;;;;4919593;29;20118;-86
2022/10/08 12:21:20;;;;;;;5.25;0.82;;;14.70;99.90;;;;;;4919848;29;20487;-83
2022/10/08 12:23:46;;;;;;;7.38;1.05;;;14.90;99.90;;;;;;4920213;29;20075;-82
2022/10/08 12:26:13;;;;;;;9.13;0.95;;;15.00;99.90;;;;;;4920314;29;20091;-82
2022/10/08 12:28:42;;;;;;;5.68;0.90;;;15.10;99.90;;;;;;4920231;29;20054;-82
2022/10/08 12:31:15;;;;;;;10.10;1.10;;;15.10;99.90;;;;;;4920185;29;20048;-83
2022/10/08 12:33:41;;;;;;;10.70;1.45;;;15.00;99.90;;;;;;4920437;29;20048;-83
2022/10/08 12:36:13;;;;;;;9.43;1.10;;;14.90;99.90;;;;;;4920086;29;20480;-82
2022/10/08 12:38:50;;;;;;;14.20;1.52;;;15.00;99.90;;;;;;4919337;29;20063;-82
2022/10/08 12:41:28;;;;;;;7.82;1.10;;;15.00;99.90;;;;;;4920016;29;20063;-82
2022/10/08 12:44:18;;;;;;;10.02;0.90;;;15.00;99.90;;;;;;4919681;29;20083;-82
2022/10/08 12:47:12;;;;;;;5.75;1.00;;;15.10;99.90;;;;;;4918956;29;20107;-82
2022/10/08 12:49:55;;;;;;;8.27;1.33;;;15.20;99.90;;;;;;4917998;29;20404;-81
2022/10/08 12:52:22;;;;;;;8.25;1.13;;;15.20;99.90;;;;;;4918387;29;20051;-83
2022/10/08 12:54:56;;;;;;;6.05;1.08;;;15.10;99.90;;;;;;4919724;29;20131;-82
2022/10/08 12:57:22;;;;;;;6.60;0.95;;;14.90;99.90;;;;;;4919995;29;20066;-82
2022/10/08 12:59:49;;;;;;;7.72;1.00;;;14.90;99.90;;;;;;4919850;29;20052;-82
2022/10/08 13:02:37;;;;;;;4.72;0.90;;;15.00;99.90;;;;;;4919555;29;20099;-82
2022/10/08 13:05:05;;;;;;;7.80;1.40;;;15.10;99.90;;;;;;4936880;29;20039;-82
2022/10/08 13:07:33;;;;;;;7.75;1.27;;;15.30;99.90;;;;;;4919868;29;20481;-83
2022/10/08 13:10:01;;;;;;;7.95;1.10;;;15.30;99.90;;;;;;4919620;29;20058;-82
2022/10/08 13:12:27;;;;;;;7.10;1.20;;;15.30;99.90;;;;;;4919532;29;20052;-82
2022/10/08 13:15:04;;;;;;;10.65;1.45;;;15.30;99.90;;;;;;4919659;29;20066;-81
2022/10/08 13:17:35;;;;;;;5.80;1.20;;;15.30;99.90;;;;;;4927421;29;20518;-82
2022/10/08 13:20:14;;;;;;;9.93;1.55;;;15.50;99.90;;;;;;4935007;29;20055;-81
2022/10/08 13:22:40;;;;;;;6.45;1.00;;;15.50;99.90;;;;;;4935292;29;20071;-82
2022/10/08 13:25:39;;;;;;;7.32;1.17;;;15.60;99.90;;;;;;4935102;29;20079;-81
2022/10/08 13:28:21;;;;;;;3.90;0.80;;;15.50;99.90;;;;;;4935650;29;20509;-83
2022/10/08 13:30:49;;;;;;;7.80;1.33;;;15.40;99.90;;;;;;4935060;29;20083;-82
2022/10/08 13:33:25;;;;;;;7.30;1.42;;;15.20;99.90;;;;;;4935034;29;20048;-82
2022/10/08 13:36:00;;;;;;;7.90;1.10;;;15.10;99.90;;;;;;4935099;29;20051;-82
2022/10/08 13:38:29;;;;;;;4.35;0.85;;;15.10;99.90;;;;;;4934984;29;20062;-82
2022/10/08 13:40:58;;;;;;;6.60;0.82;;;15.20;99.90;;;;;;4934741;29;20135;-82
2022/10/08 13:53:46;;;;;;;8.13;0.88;;;15.40;99.90;;;;;;5780486;23;20052;-82
2022/10/08 13:56:16;;;;;;;6.72;1.08;;;15.40;99.90;;;;;;4935560;29;20043;-82
2022/10/08 13:58:42;;;;;;;5.35;0.90;;;15.50;99.90;;;;;;4919014;29;20059;-81
2022/10/08 14:03:43;;;;;;;4.82;1.20;;;15.50;99.90;;;;;;5766307;23;20056;-81
2022/10/08 14:06:09;;;;;;;9.40;1.42;;;15.50;99.90;;;;;;4918935;29;20070;-82
2022/10/08 14:08:35;;;;;;;8.57;1.08;;;15.50;99.90;;;;;;4918795;29;20054;-82
2022/10/08 14:11:01;;;;;;;9.10;1.33;;;15.50;99.90;;;;;;4935067;29;20039;-83
2022/10/08 14:13:28;;;;;;;10.60;1.20;;;15.40;99.90;;;;;;4918579;29;20079;-83
2022/10/08 15:15:10;;;;;;;7.28;1.20;;;14.50;99.90;;;;;;4918271;29;20151;-81
2022/10/08 15:17:39;;;;;;;8.20;0.70;;;14.40;99.90;;;;;;4903175;29;20134;-81
2022/10/08 15:20:05;;;;;;;10.05;1.30;;;14.20;99.90;;;;;;4902048;29;20062;-82
2022/10/08 15:22:31;;;;;;;10.25;1.40;;;14.20;99.90;;;;;;4902576;29;20414;-82
2022/10/08 15:50:58;;;;;;;5.38;1.00;;;13.70;99.90;;;;;;4953800;23;20411;-83